createdAt,value
2023-03-17T00:00:54.755Z,9.681203
2023-03-17T00:01:55.117Z,9.681319
2023-03-17T00:02:54.739Z,9.681461
2023-03-17T00:03:54.789Z,9.681938
2023-03-17T00:04:54.741Z,9.680573
2023-03-17T00:05:54.775Z,9.679693
2023-03-17T00:06:54.766Z,9.679454
2023-03-17T00:07:54.714Z,9.679525
2023-03-17T00:08:54.732Z,9.680824
2023-03-17T00:09:54.740Z,9.681234
2023-03-17T00:10:54.727Z,9.680821
2023-03-17T00:11:54.729Z,9.680885
2023-03-17T00:12:54.697Z,9.680874
2023-03-17T00:13:54.729Z,9.681002
2023-03-17T00:14:54.690Z,9.681008
2023-03-17T00:15:54.756Z,9.680654
2023-03-17T00:16:54.682Z,9.680278
2023-03-17T00:17:54.667Z,9.681057
2023-03-17T00:18:54.654Z,9.681327
2023-03-17T00:19:54.647Z,9.681327
2023-03-17T00:20:54.657Z,9.681327
2023-03-17T00:21:54.654Z,9.681327
2023-03-17T00:22:54.640Z,9.681327
2023-03-17T00:23:54.636Z,9.681327
2023-03-17T00:24:54.617Z,9.681938
2023-03-17T00:25:54.618Z,9.682392
2023-03-17T00:26:54.637Z,9.681745
2023-03-17T00:27:54.623Z,9.681218
2023-03-17T00:28:54.609Z,9.681218
2023-03-17T00:29:54.613Z,9.681218
2023-03-17T00:30:54.708Z,9.681218
2023-03-17T00:31:54.645Z,9.681494
2023-03-17T00:32:54.636Z,9.681162
2023-03-17T00:33:54.583Z,9.681282
2023-03-17T00:34:54.561Z,9.681137
2023-03-17T00:35:54.633Z,9.680969
2023-03-17T00:36:54.555Z,9.681384
2023-03-17T00:37:54.602Z,9.681221
2023-03-17T00:38:54.546Z,9.681237
2023-03-17T00:39:54.531Z,9.680998
2023-03-17T00:40:54.524Z,9.681268
2023-03-17T00:41:54.554Z,9.681321
2023-03-17T00:42:54.545Z,9.682001
2023-03-17T00:43:54.512Z,9.681340
2023-03-17T00:44:54.547Z,9.681141
2023-03-17T00:45:54.500Z,9.681313
2023-03-17T00:47:01.589Z,9.681079
2023-03-17T00:47:54.490Z,9.681178
2023-03-17T00:48:54.498Z,9.681129
2023-03-17T00:49:54.487Z,9.681059
2023-03-17T00:50:54.502Z,9.681374
2023-03-17T00:51:54.463Z,9.681374
2023-03-17T00:52:54.457Z,9.680860
2023-03-17T00:53:54.456Z,9.680758
2023-03-17T00:54:54.472Z,9.681380
2023-03-17T00:55:54.447Z,9.680985
2023-03-17T00:56:54.435Z,9.680787
2023-03-17T00:57:54.438Z,9.681005
2023-03-17T00:58:54.448Z,9.681178
2023-03-17T00:59:54.417Z,9.680987
2023-03-17T01:00:54.437Z,9.681096
2023-03-17T01:01:54.476Z,9.681452
2023-03-17T01:02:54.411Z,9.681294
2023-03-17T01:03:54.428Z,9.681363
2023-03-17T01:05:05.451Z,9.681202
2023-03-17T01:05:55.395Z,9.681265
2023-03-17T01:06:54.418Z,9.681508
2023-03-17T01:07:54.393Z,9.681315
2023-03-17T01:08:54.401Z,9.680784
2023-03-17T01:09:54.371Z,9.680578
2023-03-17T01:10:54.373Z,9.681266
2023-03-17T01:11:54.372Z,9.681343
2023-03-17T01:12:54.354Z,9.681175
2023-03-17T01:13:54.355Z,9.681026
2023-03-17T01:14:54.391Z,9.681155
2023-03-17T01:15:54.360Z,9.681274
2023-03-17T01:16:54.333Z,9.681120
2023-03-17T01:17:54.331Z,9.681453
2023-03-17T01:18:54.343Z,9.681672
2023-03-17T01:19:54.349Z,9.681497
2023-03-17T01:20:54.315Z,9.681299
2023-03-17T01:21:54.298Z,9.681296
2023-03-17T01:22:54.310Z,9.681202
2023-03-17T01:23:54.317Z,9.681169
2023-03-17T01:24:54.288Z,9.681278
2023-03-17T01:25:54.301Z,9.681273
2023-03-17T01:26:54.289Z,9.681101
2023-03-17T01:27:54.274Z,9.681238
2023-03-17T01:28:54.295Z,9.681384
2023-03-17T01:29:54.308Z,9.681442
2023-03-17T01:30:54.257Z,9.681449
2023-03-17T01:31:54.311Z,9.681484
2023-03-17T01:32:54.340Z,9.681318
2023-03-17T01:33:54.229Z,9.681033
2023-03-17T01:34:54.232Z,9.680993
2023-03-17T01:35:54.335Z,9.680873
2023-03-17T01:36:54.236Z,9.681168
2023-03-17T01:37:54.220Z,9.681098
2023-03-17T01:38:54.239Z,9.680750
2023-03-17T01:39:54.225Z,9.680819
2023-03-17T01:40:54.223Z,9.680946
2023-03-17T01:41:54.219Z,9.680790
2023-03-17T01:42:54.191Z,9.680776
2023-03-17T01:43:54.181Z,9.680618
2023-03-17T01:44:54.175Z,9.680521
2023-03-17T01:45:54.333Z,9.680463
2023-03-17T01:46:54.163Z,9.680447
2023-03-17T01:47:54.193Z,9.681051
2023-03-17T01:48:54.177Z,9.681455
2023-03-17T01:49:54.147Z,9.681400
2023-03-17T01:50:54.147Z,9.681219
2023-03-17T01:51:54.161Z,9.681415
2023-03-17T01:52:54.137Z,9.681269
2023-03-17T01:53:54.137Z,9.680924
2023-03-17T01:54:54.140Z,9.680732
2023-03-17T01:55:54.159Z,9.680619
2023-03-17T01:56:54.108Z,9.680575
2023-03-17T01:57:54.098Z,9.681138
2023-03-17T01:58:54.095Z,9.681289
2023-03-17T01:59:54.090Z,9.681289
2023-03-17T02:00:54.114Z,9.681289
2023-03-17T02:01:54.120Z,9.681289
2023-03-17T02:02:54.085Z,9.681289
2023-03-17T02:03:54.110Z,9.681289
2023-03-17T02:04:54.081Z,9.681289
2023-03-17T02:05:54.055Z,9.681289
2023-03-17T02:06:58.676Z,9.681349
2023-03-17T02:07:54.072Z,9.681522
2023-03-17T02:08:54.044Z,9.681408
2023-03-17T02:09:54.036Z,9.681290
2023-03-17T02:10:54.054Z,9.681388
2023-03-17T02:11:54.026Z,9.681750
2023-03-17T02:12:54.094Z,9.681097
2023-03-17T02:13:54.034Z,9.680899
2023-03-17T02:14:54.044Z,9.680899
2023-03-17T02:15:54.038Z,9.681314
2023-03-17T02:16:54.043Z,9.680832
2023-03-17T02:17:54.013Z,9.680461
2023-03-17T02:18:54.022Z,9.680610
2023-03-17T02:19:53.999Z,9.681103
2023-03-17T02:20:54.024Z,9.681103
2023-03-17T02:21:53.987Z,9.681103
2023-03-17T02:22:53.999Z,9.681103
2023-03-17T02:23:53.970Z,9.681103
2023-03-17T02:24:54.001Z,9.681441
2023-03-17T02:25:53.972Z,9.681311
2023-03-17T02:26:53.975Z,9.679881
2023-03-17T02:27:53.981Z,9.680953
2023-03-17T02:28:53.956Z,9.680566
2023-03-17T02:29:53.948Z,9.680940
2023-03-17T02:30:53.959Z,9.680727
2023-03-17T02:31:53.932Z,9.680995
2023-03-17T02:32:53.961Z,9.681123
2023-03-17T02:33:53.961Z,9.681103
2023-03-17T02:34:53.928Z,9.681376
2023-03-17T02:35:53.942Z,9.681399
2023-03-17T02:36:53.958Z,9.681128
2023-03-17T02:37:53.900Z,9.681026
2023-03-17T02:38:53.914Z,9.680888
2023-03-17T02:39:53.923Z,9.681071
2023-03-17T02:40:53.904Z,9.680830
2023-03-17T02:41:53.902Z,9.680779
2023-03-17T02:42:53.890Z,9.680968
2023-03-17T02:43:53.888Z,9.681380
2023-03-17T02:44:53.879Z,9.681741
2023-03-17T02:45:53.905Z,9.681586
2023-03-17T02:46:53.860Z,9.681680
2023-03-17T02:47:53.857Z,9.681513
2023-03-17T02:48:53.859Z,9.681429
2023-03-17T02:49:53.854Z,9.681473
2023-03-17T02:50:53.888Z,9.681378
2023-03-17T02:51:53.839Z,9.681087
2023-03-17T02:52:53.847Z,9.680901
2023-03-17T02:53:53.830Z,9.681063
2023-03-17T02:54:53.852Z,9.681061
2023-03-17T02:55:53.825Z,9.681115
2023-03-17T02:56:53.843Z,9.681477
2023-03-17T02:57:53.839Z,9.681207
2023-03-17T02:58:53.809Z,9.681210
2023-03-17T02:59:53.827Z,9.681087
2023-03-17T03:00:53.796Z,9.681025
2023-03-17T03:01:53.781Z,9.681190
2023-03-17T03:02:53.806Z,9.681295
2023-03-17T03:03:53.778Z,9.681446
2023-03-17T03:04:53.810Z,9.680992
2023-03-17T03:05:53.765Z,9.681092
2023-03-17T03:06:53.764Z,9.681004
2023-03-17T03:07:53.756Z,9.681412
2023-03-17T03:08:53.748Z,9.681450
2023-03-17T03:09:53.742Z,9.681297
2023-03-17T03:10:53.758Z,9.681106
2023-03-17T03:11:53.723Z,9.681051
2023-03-17T03:12:53.719Z,9.681224
2023-03-17T03:13:53.730Z,9.681217
2023-03-17T03:14:53.709Z,9.681132
2023-03-17T03:15:53.836Z,9.681147
2023-03-17T03:16:53.736Z,9.681235
2023-03-17T03:17:53.695Z,9.681044
2023-03-17T03:18:53.713Z,9.681027
2023-03-17T03:19:53.702Z,9.681009
2023-03-17T03:20:53.682Z,9.681072
2023-03-17T03:21:53.699Z,9.680973
2023-03-17T03:22:53.692Z,9.681154
2023-03-17T03:23:53.672Z,9.681195
2023-03-17T03:24:53.652Z,9.681199
2023-03-17T03:25:53.644Z,9.681186
2023-03-17T03:26:53.645Z,9.681119
2023-03-17T03:27:53.673Z,9.680902
2023-03-17T03:28:53.650Z,9.681247
2023-03-17T03:29:53.649Z,9.681103
2023-03-17T03:30:53.644Z,9.681148
2023-03-17T03:31:53.644Z,9.681147
2023-03-17T03:32:53.672Z,9.681477
2023-03-17T03:33:53.613Z,9.681375
2023-03-17T03:34:53.612Z,9.681390
2023-03-17T03:35:53.734Z,9.681385
2023-03-17T03:36:53.629Z,9.681268
2023-03-17T03:37:53.590Z,9.681300
2023-03-17T03:38:53.574Z,9.681274
2023-03-17T03:39:53.581Z,9.681439
2023-03-17T03:40:53.594Z,9.681321
2023-03-17T03:41:53.613Z,9.681273
2023-03-17T03:42:53.563Z,9.681196
2023-03-17T03:43:53.610Z,9.681160
2023-03-17T03:44:53.573Z,9.681334
2023-03-17T03:45:53.543Z,9.681308
2023-03-17T03:46:53.567Z,9.681149
2023-03-17T03:47:53.535Z,9.681027
2023-03-17T03:48:53.548Z,9.681355
2023-03-17T03:49:53.551Z,9.681374
2023-03-17T03:50:53.515Z,9.681360
2023-03-17T03:51:53.525Z,9.681503
2023-03-17T03:52:53.513Z,9.681590
2023-03-17T03:53:53.501Z,9.681651
2023-03-17T03:54:53.519Z,9.681458
2023-03-17T03:55:53.481Z,9.681455
2023-03-17T03:56:53.536Z,9.681896
2023-03-17T03:57:53.478Z,9.681837
2023-03-17T03:58:53.570Z,9.681323
2023-03-17T03:59:53.471Z,9.681163
2023-03-17T04:00:53.463Z,9.681086
2023-03-17T04:01:53.459Z,9.680807
2023-03-17T04:02:53.546Z,9.680874
2023-03-17T04:03:53.443Z,9.680788
2023-03-17T04:04:53.488Z,9.681102
2023-03-17T04:05:53.454Z,9.681089
2023-03-17T04:06:53.444Z,9.681198
2023-03-17T04:07:53.429Z,9.681048
2023-03-17T04:08:53.453Z,9.681372
2023-03-17T04:09:53.441Z,9.681660
2023-03-17T04:10:53.416Z,9.681733
2023-03-17T04:11:53.397Z,9.681695
2023-03-17T04:12:53.435Z,9.682235
2023-03-17T04:13:53.391Z,9.682311
2023-03-17T04:14:53.412Z,9.681935
2023-03-17T04:15:53.411Z,9.681641
2023-03-17T04:16:53.377Z,9.681818
2023-03-17T04:17:53.405Z,9.681815
2023-03-17T04:18:53.498Z,9.681706
2023-03-17T04:19:53.402Z,9.681744
2023-03-17T04:20:53.418Z,9.681834
2023-03-17T04:21:54.773Z,9.681728
2023-03-17T04:22:53.380Z,9.681436
2023-03-17T04:23:53.347Z,9.681614
2023-03-17T04:24:53.356Z,9.681783
2023-03-17T04:25:53.327Z,9.682474
2023-03-17T04:26:53.348Z,9.682079
2023-03-17T04:27:53.320Z,9.682079
2023-03-17T04:28:53.328Z,9.682079
2023-03-17T04:29:53.313Z,9.682307
2023-03-17T04:30:53.316Z,9.681660
2023-03-17T04:31:53.351Z,9.681680
2023-03-17T04:32:53.363Z,9.681680
2023-03-17T04:33:53.284Z,9.681680
2023-03-17T04:34:53.283Z,9.681680
2023-03-17T04:35:53.334Z,9.681680
2023-03-17T04:36:53.302Z,9.681680
2023-03-17T04:37:53.271Z,9.681680
2023-03-17T04:38:53.279Z,9.681680
2023-03-17T04:39:53.245Z,9.681680
2023-03-17T04:40:53.268Z,9.681680
2023-03-17T04:41:53.267Z,9.681680
2023-03-17T04:42:53.248Z,9.681680
2023-03-17T04:43:53.227Z,9.681680
2023-03-17T04:44:53.226Z,9.681680
2023-03-17T04:45:53.336Z,9.681680
2023-03-17T04:46:53.248Z,9.681680
2023-03-17T04:47:53.229Z,9.681680
2023-03-17T04:48:53.202Z,9.681680
2023-03-17T04:49:53.203Z,9.681680
2023-03-17T04:50:53.189Z,9.681680
2023-03-17T04:51:53.203Z,9.681680
2023-03-17T04:52:53.179Z,9.681680
2023-03-17T04:53:53.178Z,9.681680
2023-03-17T04:54:53.204Z,9.681680
2023-03-17T04:55:53.173Z,9.681680
2023-03-17T04:56:53.183Z,9.681680
2023-03-17T04:57:53.157Z,9.681680
2023-03-17T04:58:53.172Z,9.681680
2023-03-17T04:59:53.151Z,9.681680
2023-03-17T05:00:53.186Z,9.681680
2023-03-17T05:01:53.186Z,9.681680
2023-03-17T05:02:53.171Z,9.681680
2023-03-17T05:03:53.130Z,9.681680
2023-03-17T05:04:53.120Z,9.681680
2023-03-17T05:05:53.113Z,9.681680
2023-03-17T05:06:53.117Z,9.681680
2023-03-17T05:07:53.141Z,9.681680
2023-03-17T05:08:53.132Z,9.681680
2023-03-17T05:09:53.105Z,9.681680
2023-03-17T05:10:53.100Z,9.681680
2023-03-17T05:11:53.080Z,9.681680
2023-03-17T05:12:53.096Z,9.681680
2023-03-17T05:13:53.105Z,9.681680
2023-03-17T05:14:53.071Z,9.681680
2023-03-17T05:15:53.075Z,9.681680
2023-03-17T05:16:53.125Z,9.681680
2023-03-17T05:17:53.078Z,9.681680
2023-03-17T05:18:53.042Z,9.681680
2023-03-17T05:19:53.071Z,9.681680
2023-03-17T05:20:53.036Z,9.681680
2023-03-17T05:21:53.050Z,9.681680
2023-03-17T05:22:53.046Z,9.681680
2023-03-17T05:23:54.954Z,9.681680
2023-03-17T05:24:53.009Z,9.681680
2023-03-17T05:25:53.006Z,9.681680
2023-03-17T05:26:53.022Z,9.681680
2023-03-17T05:27:52.993Z,9.681680
2023-03-17T05:28:53.018Z,9.681680
2023-03-17T05:29:52.989Z,9.681680
2023-03-17T05:30:53.064Z,9.681680
2023-03-17T05:31:52.979Z,9.681680
2023-03-17T05:32:53.018Z,9.681680
2023-03-17T05:33:52.994Z,9.681680
2023-03-17T05:34:52.958Z,9.681680
2023-03-17T05:35:52.965Z,9.681680
2023-03-17T05:36:52.958Z,9.681680
2023-03-17T05:37:52.950Z,9.681680
2023-03-17T05:38:52.981Z,9.681680
2023-03-17T05:39:52.972Z,9.681680
2023-03-17T05:40:52.944Z,9.681680
2023-03-17T05:41:52.923Z,9.681680
2023-03-17T05:42:52.944Z,9.681680
2023-03-17T05:43:52.906Z,9.681680
2023-03-17T05:44:52.899Z,9.681680
2023-03-17T05:45:52.980Z,9.681680
2023-03-17T05:46:52.908Z,9.681680
2023-03-17T05:47:52.918Z,9.681680
2023-03-17T05:48:52.883Z,9.681745
2023-03-17T05:49:52.882Z,9.681351
2023-03-17T05:50:52.917Z,9.681382
2023-03-17T05:51:52.868Z,9.680914
2023-03-17T05:52:52.874Z,9.681404
2023-03-17T05:53:52.876Z,9.681167
2023-03-17T05:54:52.861Z,9.681541
2023-03-17T05:55:52.851Z,9.681358
2023-03-17T05:56:52.882Z,9.681103
2023-03-17T05:57:52.844Z,9.680915
2023-03-17T05:58:52.847Z,9.680399
2023-03-17T05:59:52.838Z,9.680413
2023-03-17T06:00:52.830Z,9.681302
2023-03-17T06:01:52.860Z,9.681326
2023-03-17T06:02:52.811Z,9.681401
2023-03-17T06:03:52.828Z,9.681296
2023-03-17T06:04:52.803Z,9.681145
2023-03-17T06:05:52.798Z,9.681047
2023-03-17T06:06:52.807Z,9.681184
2023-03-17T06:07:56.249Z,9.681296
2023-03-17T06:08:52.803Z,9.681176
2023-03-17T06:09:52.828Z,9.681295
2023-03-17T06:10:52.776Z,9.681183
2023-03-17T06:11:52.844Z,9.680906
2023-03-17T06:12:52.769Z,9.680976
2023-03-17T06:13:52.762Z,9.681449
2023-03-17T06:14:52.742Z,9.681252
2023-03-17T06:15:52.824Z,9.681309
2023-03-17T06:16:52.736Z,9.680996
2023-03-17T06:17:52.740Z,9.681135
2023-03-17T06:18:52.747Z,9.681259
2023-03-17T06:19:52.815Z,9.680443
2023-03-17T06:20:52.720Z,9.681012
2023-03-17T06:21:52.733Z,9.681581
2023-03-17T06:23:03.953Z,9.681340
2023-03-17T06:23:53.736Z,9.681193
2023-03-17T06:24:52.697Z,9.680946
2023-03-17T06:25:52.687Z,9.680917
2023-03-17T06:26:52.707Z,9.680959
2023-03-17T06:27:52.734Z,9.680721
2023-03-17T06:28:52.678Z,9.680983
2023-03-17T06:29:52.665Z,9.681027
2023-03-17T06:30:52.693Z,9.681493
2023-03-17T06:31:52.646Z,9.681236
2023-03-17T06:32:52.695Z,9.680933
2023-03-17T06:33:52.674Z,9.681143
2023-03-17T06:34:52.633Z,9.681622
2023-03-17T06:35:52.660Z,9.681247
2023-03-17T06:36:52.620Z,9.681451
2023-03-17T06:37:52.648Z,9.681190
2023-03-17T06:38:52.613Z,9.680893
2023-03-17T06:39:52.603Z,9.681782
2023-03-17T06:40:52.598Z,9.681242
2023-03-17T06:41:52.598Z,9.680787
2023-03-17T06:42:52.590Z,9.681062
2023-03-17T06:43:52.600Z,9.681034
2023-03-17T06:44:52.572Z,9.681143
2023-03-17T06:45:52.593Z,9.681060
2023-03-17T06:46:52.605Z,9.681143
2023-03-17T06:47:52.560Z,9.681082
2023-03-17T06:48:52.581Z,9.681261
2023-03-17T06:49:52.553Z,9.681239
2023-03-17T06:50:52.563Z,9.681415
2023-03-17T06:51:52.541Z,9.681355
2023-03-17T06:52:52.584Z,9.681353
2023-03-17T06:53:52.535Z,9.681371
2023-03-17T06:54:52.517Z,9.681388
2023-03-17T06:55:52.519Z,9.681191
2023-03-17T06:56:52.518Z,9.681449
2023-03-17T06:57:52.511Z,9.681102
2023-03-17T06:58:52.523Z,9.681194
2023-03-17T06:59:52.517Z,9.681346
2023-03-17T07:00:52.516Z,9.681209
2023-03-17T07:01:52.506Z,9.681193
2023-03-17T07:02:52.496Z,9.681361
2023-03-17T07:03:52.473Z,9.681205
2023-03-17T07:04:52.574Z,9.681007
2023-03-17T07:05:52.485Z,9.681455
2023-03-17T07:06:52.458Z,9.681584
2023-03-17T07:07:52.439Z,9.681370
2023-03-17T07:08:52.440Z,9.681414
2023-03-17T07:09:52.434Z,9.681111
2023-03-17T07:10:52.437Z,9.680899
2023-03-17T07:11:52.475Z,9.681413
2023-03-17T07:12:52.441Z,9.681159
2023-03-17T07:13:52.415Z,9.681082
2023-03-17T07:14:52.412Z,9.681153
2023-03-17T07:15:55.234Z,9.681273
2023-03-17T07:16:52.469Z,9.681018
2023-03-17T07:17:52.395Z,9.681181
2023-03-17T07:18:52.402Z,9.681823
2023-03-17T07:19:52.392Z,9.681549
2023-03-17T07:20:52.377Z,9.681425
2023-03-17T07:21:52.379Z,9.680924
2023-03-17T07:22:52.433Z,9.681280
2023-03-17T07:23:52.354Z,9.681044
2023-03-17T07:24:52.387Z,9.681043
2023-03-17T07:25:52.369Z,9.681400
2023-03-17T07:26:52.812Z,9.681302
2023-03-17T07:27:52.335Z,9.680827
2023-03-17T07:28:52.320Z,9.681504
2023-03-17T07:29:52.325Z,9.681462
2023-03-17T07:30:52.342Z,9.681447
2023-03-17T07:31:52.393Z,9.681627
2023-03-17T07:32:52.341Z,9.681263
2023-03-17T07:33:52.297Z,9.681530
2023-03-17T07:34:52.299Z,9.681465
2023-03-17T07:35:52.338Z,9.681675
2023-03-17T07:36:52.299Z,9.681334
2023-03-17T07:37:52.297Z,9.681218
2023-03-17T07:38:52.304Z,9.681548
2023-03-17T07:39:52.256Z,9.681113
2023-03-17T07:40:52.264Z,9.680887
2023-03-17T07:41:52.245Z,9.680912
2023-03-17T07:42:52.249Z,9.681005
2023-03-17T07:43:52.232Z,9.680950
2023-03-17T07:44:52.257Z,9.681182
2023-03-17T07:45:52.318Z,9.680934
2023-03-17T07:46:52.228Z,9.680953
2023-03-17T07:47:52.195Z,9.681173
2023-03-17T07:48:52.224Z,9.680882
2023-03-17T07:49:52.249Z,9.680220
2023-03-17T07:50:52.190Z,9.681012
2023-03-17T07:51:52.176Z,9.681106
2023-03-17T07:52:52.185Z,9.680994
2023-03-17T07:53:52.152Z,9.681086
2023-03-17T07:54:52.144Z,9.680822
2023-03-17T07:55:52.118Z,9.680799
2023-03-17T07:56:52.163Z,9.680599
2023-03-17T07:57:52.208Z,9.681042
2023-03-17T07:58:52.113Z,9.681045
2023-03-17T07:59:52.090Z,9.681140
2023-03-17T08:00:52.137Z,9.681247
2023-03-17T08:01:52.216Z,9.680938
2023-03-17T08:03:07.006Z,9.681096
2023-03-17T08:03:53.155Z,9.680930
2023-03-17T08:04:52.069Z,9.680825
2023-03-17T08:05:52.060Z,9.681865
2023-03-17T08:06:52.020Z,9.681984
2023-03-17T08:07:52.051Z,9.681660
2023-03-17T08:08:52.014Z,9.680426
2023-03-17T08:09:52.019Z,9.681009
2023-03-17T08:10:52.076Z,9.680893
2023-03-17T08:11:52.046Z,9.681561
2023-03-17T08:12:52.057Z,9.681359
2023-03-17T08:13:51.978Z,9.681227
2023-03-17T08:14:51.977Z,9.681222
2023-03-17T08:15:51.967Z,9.680588
2023-03-17T08:16:52.005Z,9.681132
2023-03-17T08:17:51.955Z,9.681244
2023-03-17T08:18:51.973Z,9.681388
2023-03-17T08:19:51.971Z,9.681659
2023-03-17T08:20:51.921Z,9.681206
2023-03-17T08:21:51.926Z,9.681196
2023-03-17T08:22:51.921Z,9.680555
2023-03-17T08:23:51.922Z,9.680016
2023-03-17T08:24:51.978Z,9.681146
2023-03-17T08:25:51.944Z,9.680953
2023-03-17T08:26:51.890Z,9.680833
2023-03-17T08:27:51.880Z,9.680937
2023-03-17T08:28:51.895Z,9.681070
2023-03-17T08:29:51.868Z,9.680773
2023-03-17T08:30:51.967Z,9.680718
2023-03-17T08:31:51.953Z,9.680870
2023-03-17T08:32:51.897Z,9.680777
2023-03-17T08:33:51.869Z,9.680409
2023-03-17T08:34:51.828Z,9.680846
2023-03-17T08:35:51.900Z,9.680917
2023-03-17T08:36:51.834Z,9.680779
2023-03-17T08:37:52.333Z,9.680723
2023-03-17T08:38:51.809Z,9.681024
2023-03-17T08:39:51.820Z,9.681183
2023-03-17T08:40:51.807Z,9.681013
2023-03-17T08:41:51.780Z,9.680733
2023-03-17T08:42:51.801Z,9.680800
2023-03-17T08:43:51.802Z,9.680985
2023-03-17T08:44:51.768Z,9.680830
2023-03-17T08:45:51.755Z,9.681086
2023-03-17T08:46:51.750Z,9.680951
2023-03-17T08:47:51.733Z,9.680772
2023-03-17T08:48:51.765Z,9.680960
2023-03-17T08:49:51.725Z,9.681041
2023-03-17T08:50:51.714Z,9.680903
2023-03-17T08:51:51.700Z,9.680717
2023-03-17T08:52:51.725Z,9.680700
2023-03-17T08:53:51.696Z,9.681000
2023-03-17T08:54:51.703Z,9.680909
2023-03-17T08:55:51.669Z,9.680934
2023-03-17T08:56:51.687Z,9.681010
2023-03-17T08:57:51.672Z,9.681031
2023-03-17T08:58:51.654Z,9.681144
2023-03-17T08:59:51.686Z,9.681066
2023-03-17T09:00:51.662Z,9.681066
2023-03-17T09:01:51.748Z,9.681241
2023-03-17T09:02:51.758Z,9.681162
2023-03-17T09:03:51.641Z,9.681073
2023-03-17T09:04:51.651Z,9.681080
2023-03-17T09:05:51.613Z,9.680984
2023-03-17T09:07:02.876Z,9.681314
2023-03-17T09:07:52.666Z,9.681552
2023-03-17T09:08:51.597Z,9.681377
2023-03-17T09:09:51.612Z,9.681303
2023-03-17T09:10:51.581Z,9.681562
2023-03-17T09:11:51.558Z,9.681196
2023-03-17T09:12:51.587Z,9.681226
2023-03-17T09:13:51.547Z,9.681176
2023-03-17T09:14:51.546Z,9.681110
2023-03-17T09:15:52.193Z,9.681173
2023-03-17T09:16:51.562Z,9.681222
2023-03-17T09:17:51.530Z,9.681563
2023-03-17T09:18:51.520Z,9.681252
2023-03-17T09:19:51.518Z,9.681046
2023-03-17T09:20:51.506Z,9.681076
2023-03-17T09:21:51.488Z,9.681330
2023-03-17T09:22:51.508Z,9.680934
2023-03-17T09:23:51.468Z,9.680921
2023-03-17T09:24:51.466Z,9.681092
2023-03-17T09:25:51.460Z,9.680885
2023-03-17T09:26:51.454Z,9.681054
2023-03-17T09:27:51.484Z,9.681210
2023-03-17T09:28:51.460Z,9.681005
2023-03-17T09:29:51.491Z,9.681096
2023-03-17T09:30:51.488Z,9.681106
2023-03-17T09:31:51.419Z,9.680987
2023-03-17T09:32:51.461Z,9.680970
2023-03-17T09:33:51.416Z,9.681134
2023-03-17T09:34:51.750Z,9.681231
2023-03-17T09:35:51.425Z,9.681087
2023-03-17T09:36:51.379Z,9.680949
2023-03-17T09:37:51.389Z,9.680610
2023-03-17T09:38:51.369Z,9.680718
2023-03-17T09:39:51.368Z,9.680487
2023-03-17T09:40:51.375Z,9.680982
2023-03-17T09:41:51.365Z,9.681049
2023-03-17T09:42:51.353Z,9.680791
2023-03-17T09:43:51.334Z,9.681696
2023-03-17T09:44:51.321Z,9.681265
2023-03-17T09:45:51.329Z,9.681381
2023-03-17T09:46:51.444Z,9.681754
2023-03-17T09:47:51.311Z,9.681794
2023-03-17T09:48:51.305Z,9.681621
2023-03-17T09:49:51.319Z,9.681310
2023-03-17T09:50:51.324Z,9.680675
2023-03-17T09:51:51.269Z,9.680909
2023-03-17T09:52:51.561Z,9.680564
2023-03-17T09:53:51.257Z,9.680398
2023-03-17T09:54:51.250Z,9.680651
2023-03-17T09:55:51.244Z,9.680942
2023-03-17T09:56:51.271Z,9.681251
2023-03-17T09:57:51.220Z,9.681009
2023-03-17T09:58:51.411Z,9.681034
2023-03-17T09:59:51.224Z,9.681325
2023-03-17T10:00:51.217Z,9.681251
2023-03-17T10:01:51.232Z,9.681051
2023-03-17T10:02:51.224Z,9.680890
2023-03-17T10:03:51.172Z,9.681412
2023-03-17T10:04:51.211Z,9.681271
2023-03-17T10:05:51.238Z,9.681314
2023-03-17T10:06:51.173Z,9.681192
2023-03-17T10:07:51.146Z,9.681222
2023-03-17T10:08:51.197Z,9.681574
2023-03-17T10:09:51.140Z,9.681406
2023-03-17T10:10:51.130Z,9.681712
2023-03-17T10:11:51.125Z,9.681634
2023-03-17T10:12:51.110Z,9.681627
2023-03-17T10:13:51.140Z,9.681561
2023-03-17T10:14:51.420Z,9.681181
2023-03-17T10:15:51.141Z,9.680859
2023-03-17T10:16:51.107Z,9.680994
2023-03-17T10:17:51.084Z,9.681050
2023-03-17T10:18:51.077Z,9.681344
2023-03-17T10:19:51.068Z,9.681574
2023-03-17T10:20:51.728Z,9.681678
2023-03-17T10:21:51.079Z,9.681589
2023-03-17T10:22:51.036Z,9.681113
2023-03-17T10:23:51.053Z,9.681806
2023-03-17T10:24:51.025Z,9.681570
2023-03-17T10:25:51.035Z,9.681276
2023-03-17T10:26:51.068Z,9.681378
2023-03-17T10:27:51.016Z,9.681312
2023-03-17T10:28:50.993Z,9.681135
2023-03-17T10:29:50.996Z,9.681328
2023-03-17T10:30:50.985Z,9.681312
2023-03-17T10:31:51.059Z,9.680917
2023-03-17T10:32:50.977Z,9.681204
2023-03-17T10:33:50.958Z,9.681344
2023-03-17T10:34:50.969Z,9.681276
2023-03-17T10:35:50.956Z,9.681282
2023-03-17T10:36:50.954Z,9.681540
2023-03-17T10:37:54.884Z,9.681678
2023-03-17T10:38:51.948Z,9.680948
2023-03-17T10:39:50.927Z,9.680735
2023-03-17T10:40:50.912Z,9.680682
2023-03-17T10:41:50.905Z,9.681004
2023-03-17T10:42:50.926Z,9.681083
2023-03-17T10:43:50.878Z,9.680882
2023-03-17T10:44:50.893Z,9.680813
2023-03-17T10:45:50.887Z,9.680829
2023-03-17T10:46:50.934Z,9.681052
2023-03-17T10:47:50.835Z,9.680992
2023-03-17T10:48:50.854Z,9.680904
2023-03-17T10:49:50.825Z,9.681206
2023-03-17T10:50:52.218Z,9.681230
2023-03-17T10:51:50.839Z,9.681098
2023-03-17T10:52:50.848Z,9.681206
2023-03-17T10:53:50.806Z,9.681354
2023-03-17T10:54:50.799Z,9.681252
2023-03-17T10:55:50.805Z,9.680971
2023-03-17T10:56:50.777Z,9.681184
2023-03-17T10:57:50.773Z,9.681054
2023-03-17T10:58:50.782Z,9.680882
2023-03-17T10:59:50.755Z,9.681089
2023-03-17T11:00:50.792Z,9.680882
2023-03-17T11:01:50.754Z,9.681208
2023-03-17T11:02:50.759Z,9.681040
2023-03-17T11:03:50.789Z,9.681023
2023-03-17T11:04:50.728Z,9.680970
2023-03-17T11:05:50.713Z,9.680761
2023-03-17T11:06:50.705Z,9.680824
2023-03-17T11:07:50.694Z,9.680869
2023-03-17T11:08:50.718Z,9.681101
2023-03-17T11:09:50.720Z,9.680979
2023-03-17T11:10:50.679Z,9.680922
2023-03-17T11:11:50.679Z,9.680959
2023-03-17T11:12:50.664Z,9.680985
2023-03-17T11:13:50.667Z,9.681042
2023-03-17T11:14:50.657Z,9.681117
2023-03-17T11:15:50.673Z,9.681080
2023-03-17T11:16:50.693Z,9.681236
2023-03-17T11:17:50.623Z,9.681240
2023-03-17T11:18:50.619Z,9.681063
2023-03-17T11:19:50.619Z,9.681139
2023-03-17T11:20:50.614Z,9.681012
2023-03-17T11:21:50.592Z,9.680826
2023-03-17T11:22:50.589Z,9.680722
2023-03-17T11:23:50.591Z,9.680986
2023-03-17T11:24:50.589Z,9.681138
2023-03-17T11:25:50.563Z,9.681022
2023-03-17T11:26:50.567Z,9.681258
2023-03-17T11:27:50.560Z,9.681218
2023-03-17T11:28:50.532Z,9.681202
2023-03-17T11:29:50.533Z,9.681101
2023-03-17T11:30:50.520Z,9.681067
2023-03-17T11:31:50.546Z,9.681084
2023-03-17T11:32:50.518Z,9.681068
2023-03-17T11:33:50.504Z,9.680939
2023-03-17T11:34:50.497Z,9.681092
2023-03-17T11:35:50.486Z,9.681008
2023-03-17T11:36:50.495Z,9.680960
2023-03-17T11:37:50.462Z,9.681261
2023-03-17T11:38:50.466Z,9.681392
2023-03-17T11:39:50.452Z,9.681254
2023-03-17T11:40:50.447Z,9.681312
2023-03-17T11:41:50.437Z,9.681164
2023-03-17T11:42:50.442Z,9.680869
2023-03-17T11:43:50.416Z,9.680853
2023-03-17T11:44:50.417Z,9.680591